Time;durP1;ratioP1;P1;durP2;ratioP2;P2;SDS_P1;SDS_P2;PMS_P1;PMS_P2;Temp;Humidity;BMP_temperature;BMP_pressure;BME280_temperature;BME280_humidity;BME280_pressure;Samples;Min_cycle;Max_cycle;Signal;HPM_P1;HPM_P2
2022/08/17 00:01:50;;;;;;;12.50;10.45;;;21.10;99.90;;;;;;2603511;54;20038;31
2022/08/17 00:04:30;;;;;;;11.45;10.25;;;21.10;99.90;;;;;;2603619;54;20026;31
2022/08/17 00:07:06;;;;;;;14.17;9.83;;;21.10;99.90;;;;;;2622084;46;20026;31
2022/08/17 00:09:40;;;;;;;11.48;8.70;;;21.00;99.90;;;;;;2702228;39;22209;31
2022/08/17 00:12:15;;;;;;;8.55;7.75;;;21.00;99.90;;;;;;2603437;54;21837;31
2022/08/17 00:15:12;;;;;;;10.48;8.50;;;21.00;99.90;;;;;;2603378;54;20030;31
2022/08/17 00:17:46;;;;;;;11.90;10.70;;;21.00;99.90;;;;;;2621653;46;20093;31
2022/08/17 00:20:24;;;;;;;12.60;9.35;;;21.00;99.90;;;;;;2603088;54;20034;31
2022/08/17 00:23:10;;;;;;;12.93;8.90;;;21.00;99.90;;;;;;2603511;54;20857;31
2022/08/17 00:25:45;;;;;;;9.25;8.10;;;20.90;99.90;;;;;;2621737;46;20310;31
2022/08/17 00:28:19;;;;;;;9.70;7.95;;;20.90;99.90;;;;;;2603731;54;20026;31
2022/08/17 00:30:55;;;;;;;11.73;8.25;;;20.80;99.90;;;;;;2603394;54;20027;31
2022/08/17 00:33:31;;;;;;;;;;;20.80;99.90;;;;;;2603452;54;20902;31
2022/08/17 00:36:07;;;;;;;10.15;8.43;;;20.80;99.90;;;;;;2720839;39;20914;31
2022/08/17 00:38:41;;;;;;;10.82;9.75;;;20.80;99.90;;;;;;2621749;46;20909;31
2022/08/17 00:41:18;;;;;;;11.70;8.77;;;20.70;99.90;;;;;;2603337;54;19941;31
2022/08/17 00:43:54;;;;;;;9.77;8.48;;;20.70;99.90;;;;;;2701885;39;21227;31
2022/08/17 00:46:33;;;;;;;13.73;10.00;;;20.70;99.90;;;;;;2603343;54;20042;31
2022/08/17 00:49:08;;;;;;;11.13;9.45;;;20.60;99.90;;;;;;2603198;54;20026;31
2022/08/17 00:51:49;;;;;;;11.48;9.25;;;20.60;99.90;;;;;;2603314;54;20049;31
2022/08/17 00:54:25;;;;;;;9.88;8.07;;;20.50;99.90;;;;;;2603212;54;20889;31
2022/08/17 00:57:02;;;;;;;13.90;8.85;;;20.50;99.90;;;;;;2621816;47;20046;31
2022/08/17 00:59:39;;;;;;;11.27;8.15;;;20.40;99.90;;;;;;2603114;54;20030;31
2022/08/17 01:02:15;;;;;;;9.35;8.40;;;20.40;99.90;;;;;;2622168;47;20026;31
2022/08/17 01:04:51;;;;;;;11.43;9.00;;;20.40;99.90;;;;;;2603288;54;20027;31
2022/08/17 01:07:28;;;;;;;8.23;7.43;;;20.40;99.90;;;;;;2621707;47;20026;31
2022/08/17 01:10:04;;;;;;;11.23;8.33;;;20.40;99.90;;;;;;2603080;54;20033;31
2022/08/17 01:12:39;;;;;;;9.45;8.45;;;20.50;99.90;;;;;;2603410;54;20884;31
2022/08/17 01:15:14;;;;;;;8.63;7.80;;;20.40;99.90;;;;;;2602900;54;20935;31
2022/08/17 01:17:50;;;;;;;16.65;9.40;;;20.40;99.90;;;;;;2621540;47;20023;31
2022/08/17 01:20:25;;;;;;;12.82;7.90;;;20.40;99.90;;;;;;2602446;54;25034;31
2022/08/17 01:23:02;;;;;;;8.80;7.93;;;20.40;99.90;;;;;;2603209;54;20913;31
2022/08/17 01:25:38;;;;;;;8.48;7.55;;;20.30;99.90;;;;;;2603202;54;20890;31
2022/08/17 01:28:14;;;;;;;;;;;20.30;99.90;;;;;;2603348;54;19941;31
2022/08/17 01:31:10;;;;;;;10.75;9.35;;;20.30;99.90;;;;;;2622115;47;19942;31
2022/08/17 01:33:45;;;;;;;10.52;8.57;;;20.20;99.90;;;;;;2622312;46;20030;31
2022/08/17 01:36:20;;;;;;;11.70;10.10;;;20.20;99.90;;;;;;2603944;54;20026;31
2022/08/17 01:38:58;;;;;;;11.15;8.48;;;20.20;99.90;;;;;;2604001;54;20823;31
2022/08/17 01:41:34;;;;;;;12.77;9.02;;;20.20;99.90;;;;;;2609961;46;20029;31
2022/08/17 01:44:10;;;;;;;12.50;10.63;;;20.20;99.90;;;;;;2622165;46;20049;31
2022/08/17 01:46:44;;;;;;;;;;;20.10;99.90;;;;;;2604199;54;19934;31
2022/08/17 01:49:18;;;;;;;12.63;9.63;;;20.10;99.90;;;;;;2603809;54;19934;31
2022/08/17 01:51:54;;;;;;;15.18;9.68;;;20.00;99.90;;;;;;2603953;54;20246;31
2022/08/17 01:54:35;;;;;;;12.90;10.27;;;20.00;99.90;;;;;;2622496;46;20886;31
2022/08/17 01:57:09;;;;;;;10.48;9.13;;;20.00;99.90;;;;;;2603771;54;20885;31
2022/08/17 01:59:47;;;;;;;10.55;8.57;;;19.90;99.90;;;;;;2622443;46;20046;31
2022/08/17 02:02:22;;;;;;;9.98;9.07;;;20.00;99.90;;;;;;2604072;46;20030;31
2022/08/17 02:05:06;;;;;;;11.15;8.65;;;20.00;99.90;;;;;;2622401;46;20053;31
2022/08/17 02:07:45;;;;;;;12.20;8.10;;;20.00;99.90;;;;;;2603837;54;20083;31
2022/08/17 02:10:37;;;;;;;8.73;7.75;;;20.00;99.90;;;;;;2603753;54;20037;31
2022/08/17 02:13:19;;;;;;;;;;;19.90;99.90;;;;;;2604062;54;20908;31
2022/08/17 02:15:55;;;;;;;9.30;8.13;;;19.90;99.90;;;;;;2603423;54;20922;31
2022/08/17 02:18:30;;;;;;;10.77;8.93;;;19.80;99.90;;;;;;2603638;54;20037;31
2022/08/17 02:21:04;;;;;;;12.65;8.93;;;19.80;99.90;;;;;;2603965;54;20049;31
2022/08/17 02:23:43;;;;;;;10.32;8.27;;;19.80;99.90;;;;;;2622281;46;20030;31
2022/08/17 02:26:23;;;;;;;10.70;9.38;;;19.70;99.90;;;;;;2603831;54;20053;31
2022/08/17 02:29:02;;;;;;;8.10;7.10;;;19.70;99.90;;;;;;2603813;54;20034;31
2022/08/17 02:31:38;;;;;;;11.20;7.90;;;19.70;99.90;;;;;;2622029;46;20864;31
2022/08/17 02:34:12;;;;;;;9.77;7.93;;;19.70;99.90;;;;;;2622274;46;20033;31
2022/08/17 02:36:46;;;;;;;12.18;9.00;;;19.60;99.90;;;;;;2603662;54;20242;31
2022/08/17 02:39:21;;;;;;;9.80;8.90;;;19.60;99.90;;;;;;2621728;46;20075;31
2022/08/17 02:42:05;;;;;;;8.95;8.05;;;19.60;99.90;;;;;;2603377;54;20033;31
2022/08/17 02:44:40;;;;;;;10.20;9.02;;;19.60;99.90;;;;;;2603613;54;20057;31
2022/08/17 02:47:15;;;;;;;12.80;9.73;;;19.50;99.90;;;;;;2621899;46;20030;31
2022/08/17 02:49:50;;;;;;;11.50;8.35;;;19.50;99.90;;;;;;2603782;54;20921;31
2022/08/17 02:52:32;;;;;;;9.23;8.33;;;19.50;99.90;;;;;;2603615;54;20278;31
2022/08/17 02:55:22;;;;;;;11.45;7.40;;;19.50;99.90;;;;;;2603553;54;20026;31
2022/08/17 02:58:00;;;;;;;10.05;8.30;;;19.50;99.90;;;;;;2603514;54;20034;31
2022/08/17 03:00:36;;;;;;;11.03;8.60;;;19.40;99.90;;;;;;2622211;46;25026;31
2022/08/17 03:03:17;;;;;;;13.32;9.77;;;19.40;99.90;;;;;;2622291;46;20926;31
2022/08/17 03:05:52;;;;;;;14.55;8.40;;;19.40;99.90;;;;;;2773733;31;21192;31
2022/08/17 03:08:30;;;;;;;10.20;8.30;;;19.30;99.90;;;;;;2603468;54;20023;31
2022/08/17 03:11:06;;;;;;;10.48;9.13;;;19.30;99.90;;;;;;2602654;54;20053;31
2022/08/17 03:13:45;;;;;;;11.27;9.05;;;19.30;99.90;;;;;;2603510;54;20026;31
2022/08/17 03:16:20;;;;;;;11.63;10.20;;;19.30;99.90;;;;;;2603626;54;20027;31
2022/08/17 03:18:56;;;;;;;9.30;8.45;;;19.30;99.90;;;;;;2603700;54;20027;31
2022/08/17 03:21:30;;;;;;;10.85;9.23;;;19.30;99.90;;;;;;2603516;54;20905;31
2022/08/17 03:24:03;;;;;;;12.68;10.35;;;19.30;99.90;;;;;;2621810;46;20924;31
2022/08/17 03:26:42;;;;;;;12.40;9.95;;;19.30;99.90;;;;;;2603477;54;20033;31
2022/08/17 03:29:20;;;;;;;14.27;10.57;;;19.40;99.90;;;;;;2720505;39;21305;31
2022/08/17 03:31:55;;;;;;;13.13;11.70;;;19.30;99.90;;;;;;2622338;46;20862;31
2022/08/17 03:34:30;;;;;;;16.55;11.55;;;19.20;99.90;;;;;;2603702;54;20030;31
2022/08/17 03:37:05;;;;;;;16.55;10.75;;;19.20;99.90;;;;;;2603648;54;20345;31
2022/08/17 03:39:39;;;;;;;14.40;10.50;;;19.20;99.90;;;;;;2603651;54;20918;31
2022/08/17 03:42:16;;;;;;;10.88;9.80;;;19.30;99.90;;;;;;2603588;54;20887;31
2022/08/17 03:45:05;;;;;;;13.65;10.55;;;19.20;99.90;;;;;;2622207;46;20046;31
2022/08/17 03:58:53;;;;;;;11.05;9.85;;;19.10;99.90;;;;;;2603499;54;20927;31
2022/08/17 04:01:29;;;;;;;10.70;9.60;;;19.10;99.90;;;;;;2622124;46;20030;31
2022/08/17 04:04:08;;;;;;;11.23;9.07;;;19.10;99.90;;;;;;2603333;54;20128;31
2022/08/17 04:06:43;;;;;;;14.80;9.30;;;19.10;99.90;;;;;;2621649;46;20851;31
2022/08/17 04:09:18;;;;;;;13.77;10.05;;;19.10;99.90;;;;;;2603579;54;20022;31
2022/08/17 04:11:53;;;;;;;12.80;10.50;;;19.10;99.90;;;;;;2603421;54;20030;31
2022/08/17 04:14:32;;;;;;;10.53;9.43;;;19.10;99.90;;;;;;2603303;54;20069;31
2022/08/17 04:17:07;;;;;;;15.40;12.30;;;19.20;99.90;;;;;;2621247;46;20049;31
2022/08/17 04:19:45;;;;;;;20.23;10.70;;;19.20;99.90;;;;;;2603460;54;20042;31
2022/08/17 04:22:20;;;;;;;12.60;10.75;;;19.40;99.90;;;;;;2603261;54;20030;31
2022/08/17 04:25:09;;;;;;;17.58;13.63;;;19.50;99.90;;;;;;2603205;54;20039;31
2022/08/17 04:27:44;;;;;;;23.03;12.20;;;19.60;99.90;;;;;;2603429;54;20026;31
2022/08/17 04:30:19;;;;;;;14.00;12.50;;;19.70;99.90;;;;;;2603538;54;20030;31
2022/08/17 04:32:55;;;;;;;16.33;11.37;;;19.80;99.90;;;;;;2603509;54;19940;31
2022/08/17 04:35:46;;;;;;;18.90;13.05;;;19.90;99.90;;;;;;2603355;54;20238;31
2022/08/17 04:38:22;;;;;;;15.25;12.45;;;20.10;99.90;;;;;;2603567;54;20193;31
2022/08/17 04:43:46;;;;;;;19.30;12.95;;;20.30;99.90;;;;;;2621616;47;20026;31
2022/08/17 04:46:23;;;;;;;15.67;13.60;;;20.50;99.90;;;;;;2603261;54;20026;31
2022/08/17 04:48:59;;;;;;;18.88;12.93;;;20.60;99.90;;;;;;2603285;54;20041;31
2022/08/17 04:51:37;;;;;;;17.08;13.15;;;20.90;99.90;;;;;;2602370;54;20005;31
2022/08/17 04:54:19;;;;;;;17.50;15.77;;;21.10;99.90;;;;;;2603299;54;20026;31
2022/08/17 04:56:55;;;;;;;19.00;16.23;;;21.30;99.90;;;;;;2603177;54;20046;31
2022/08/17 04:59:33;;;;;;;26.30;16.63;;;21.50;99.90;;;;;;2603253;54;20030;31
2022/08/17 05:02:11;;;;;;;20.67;13.15;;;21.70;99.90;;;;;;2621447;47;20253;31
2022/08/17 05:04:48;;;;;;;18.38;16.48;;;22.00;99.90;;;;;;2621439;47;20031;31
2022/08/17 05:07:27;;;;;;;19.27;16.33;;;22.20;99.90;;;;;;2604165;54;20077;31
2022/08/17 05:10:06;;;;;;;20.15;15.70;;;22.30;99.90;;;;;;2604049;54;20886;31
2022/08/17 05:12:42;;;;;;;17.45;15.55;;;22.50;99.90;;;;;;2603985;54;20092;31
2022/08/17 05:15:18;;;;;;;17.13;15.40;;;22.70;99.90;;;;;;2604070;54;20042;31
2022/08/17 05:17:56;;;;;;;20.77;15.55;;;22.80;99.90;;;;;;2604163;54;20855;31
2022/08/17 05:20:34;;;;;;;18.20;16.30;;;23.00;99.90;;;;;;2603818;54;20807;31
2022/08/17 05:23:18;;;;;;;17.33;15.32;;;23.20;99.90;;;;;;2603799;54;20026;31
2022/08/17 05:25:55;;;;;;;16.65;15.02;;;23.40;99.90;;;;;;2604012;54;20934;31
2022/08/17 05:28:31;;;;;;;16.47;14.40;;;23.60;99.90;;;;;;2603977;54;20019;31
2022/08/17 05:31:09;;;;;;;19.60;15.00;;;23.70;99.90;;;;;;2622450;46;20140;31
2022/08/17 05:33:46;;;;;;;15.05;13.45;;;23.90;99.90;;;;;;2603963;54;20872;31
2022/08/17 05:36:20;;;;;;;15.63;14.15;;;24.00;99.90;;;;;;2603689;54;20026;31
2022/08/17 05:39:15;;;;;;;20.55;15.85;;;24.30;99.90;;;;;;2603856;54;20027;31
2022/08/17 05:41:52;;;;;;;17.90;15.05;;;24.40;99.90;;;;;;2702514;39;21086;31
2022/08/17 05:44:29;;;;;;;16.98;15.15;;;24.50;99.90;;;;;;2603679;54;20828;31
2022/08/17 05:47:05;;;;;;;16.90;14.50;;;24.60;99.90;;;;;;2603969;54;20046;31
2022/08/17 05:49:42;;;;;;;15.73;13.63;;;24.70;99.90;;;;;;2622687;46;20722;31
2022/08/17 05:52:22;;;;;;;14.88;13.48;;;24.90;99.90;;;;;;2603934;54;20030;31
2022/08/17 05:55:04;;;;;;;16.42;13.52;;;25.10;99.90;;;;;;2702341;39;21301;31
2022/08/17 05:57:45;;;;;;;14.40;12.25;;;25.20;99.90;;;;;;2702546;39;21050;31
2022/08/17 06:00:28;;;;;;;16.88;12.35;;;25.40;99.90;;;;;;2603730;54;20038;31
2022/08/17 06:03:26;;;;;;;12.80;11.50;;;25.60;99.90;;;;;;2603751;54;20023;31
2022/08/17 06:06:07;;;;;;;13.60;11.98;;;25.80;99.90;;;;;;2603678;54;20038;31
2022/08/17 06:08:46;;;;;;;13.77;11.48;;;25.90;99.90;;;;;;2603662;54;20048;31
2022/08/17 06:11:29;;;;;;;17.00;12.43;;;26.00;99.90;;;;;;2622226;46;20030;31
2022/08/17 06:14:19;;;;;;;11.27;10.18;;;26.20;99.90;;;;;;2603896;54;20888;31
2022/08/17 06:16:57;;;;;;;14.70;10.73;;;26.50;99.90;;;;;;2621783;46;20089;31
2022/08/17 06:19:35;;;;;;;11.15;9.82;;;26.70;99.90;;;;;;2603897;54;20022;31
2022/08/17 06:22:13;;;;;;;13.97;9.57;;;26.90;99.90;;;;;;2603786;54;20037;31
2022/08/17 06:24:52;;;;;;;16.92;10.68;;;27.20;99.90;;;;;;2603756;54;20496;31
2022/08/17 06:27:31;;;;;;;11.17;9.83;;;27.30;99.90;;;;;;2603959;54;20026;31
2022/08/17 06:30:10;;;;;;;11.52;10.48;;;27.60;99.90;;;;;;2603826;54;20030;31
2022/08/17 06:32:45;;;;;;;10.18;9.13;;;27.80;99.90;;;;;;2603874;54;20882;31
2022/08/17 06:35:26;;;;;;;11.95;9.75;;;27.90;99.90;;;;;;2603949;54;20085;31
2022/08/17 06:38:05;;;;;;;9.75;8.75;;;28.10;99.90;;;;;;2702428;39;22258;31
2022/08/17 06:41:01;;;;;;;9.98;8.45;;;28.30;99.90;;;;;;2616026;46;20846;31
2022/08/17 06:43:42;;;;;;;12.85;9.27;;;28.50;99.90;;;;;;2603660;54;20859;31
2022/08/17 06:46:27;;;;;;;10.63;8.90;;;28.70;99.90;;;;;;2603636;54;20062;31
2022/08/17 06:49:09;;;;;;;13.63;9.13;;;28.70;99.90;;;;;;2603921;54;20822;31
2022/08/17 06:51:45;;;;;;;13.02;8.98;;;28.80;99.90;;;;;;2603715;54;20036;31
2022/08/17 06:54:23;;;;;;;14.45;9.50;;;28.90;99.90;;;;;;2603853;54;20031;31
2022/08/17 06:57:00;;;;;;;10.23;9.00;;;29.00;99.90;;;;;;2622052;46;20133;31
2022/08/17 06:59:38;;;;;;;9.40;8.45;;;29.10;99.90;;;;;;2603911;54;20034;31
2022/08/17 07:02:45;;;;;;;11.65;9.23;;;29.20;99.90;;;;;;2603519;54;20027;31
2022/08/17 07:05:28;;;;;;;13.00;8.82;;;29.40;99.90;;;;;;2603792;54;20110;31
2022/08/17 07:08:06;;;;;;;9.07;8.23;;;29.60;99.90;;;;;;2603811;54;20030;31
2022/08/17 07:10:44;;;;;;;11.02;8.98;;;29.80;99.90;;;;;;2603778;54;20038;31
2022/08/17 07:13:28;;;;;;;9.00;8.10;;;29.90;99.90;;;;;;2603695;54;20022;31
2022/08/17 07:16:14;;;;;;;10.07;8.35;;;30.00;99.90;;;;;;2621974;46;20053;31
2022/08/17 07:18:52;;;;;;;;;;;30.30;99.90;;;;;;2603496;54;20093;31
2022/08/17 07:21:37;;;;;;;10.38;8.43;;;30.40;99.90;;;;;;2603453;54;20765;31
2022/08/17 07:24:22;;;;;;;9.50;7.75;;;30.50;99.90;;;;;;2603666;54;20026;31
2022/08/17 07:27:09;;;;;;;8.85;7.60;;;30.70;99.90;;;;;;2603498;54;20917;31
2022/08/17 07:29:48;;;;;;;8.93;7.95;;;30.90;99.90;;;;;;2603896;54;20034;31
2022/08/17 07:32:25;;;;;;;10.75;7.85;;;31.00;99.90;;;;;;2603494;54;20861;31
2022/08/17 07:35:14;;;;;;;8.07;7.32;;;31.20;99.90;;;;;;2603591;54;20861;31
2022/08/17 07:37:52;;;;;;;9.43;7.20;;;31.50;99.90;;;;;;2603260;54;20027;31
2022/08/17 07:40:28;;;;;;;9.48;7.53;;;31.60;99.90;;;;;;2603511;54;20881;31
2022/08/17 07:43:15;;;;;;;8.38;7.50;;;31.70;99.90;;;;;;2603360;54;20046;31
2022/08/17 07:48:52;;;;;;;10.23;6.85;;;32.10;99.90;;;;;;2603470;54;20029;31
2022/08/17 07:51:31;;;;;;;8.40;7.60;;;32.30;99.90;;;;;;2603383;54;20022;31
2022/08/17 07:54:24;;;;;;;8.95;6.70;;;32.40;99.90;;;;;;2603618;54;20027;31
2022/08/17 07:57:00;;;;;;;7.32;5.90;;;32.50;99.90;;;;;;2603734;54;20858;31
2022/08/17 07:59:36;;;;;;;10.07;6.40;;;32.60;99.90;;;;;;2603541;54;20026;31
2022/08/17 08:02:26;;;;;;;9.20;6.10;;;32.80;99.90;;;;;;2702188;39;22205;31
2022/08/17 08:05:08;;;;;;;10.90;6.45;;;33.10;99.90;;;;;;2603433;54;20026;31
2022/08/17 08:07:54;;;;;;;10.47;6.73;;;33.20;99.90;;;;;;2603588;54;20034;31
2022/08/17 08:10:34;;;;;;;9.30;6.15;;;33.30;99.90;;;;;;2603579;54;20266;31
2022/08/17 08:13:12;;;;;;;6.82;6.13;;;33.40;99.90;;;;;;2603646;54;20033;31
2022/08/17 08:15:50;;;;;;;9.88;5.85;;;33.60;99.90;;;;;;2621900;46;20022;31
2022/08/17 08:18:30;;;;;;;9.60;6.30;;;33.70;99.90;;;;;;2621391;46;20097;31
2022/08/17 08:21:24;;;;;;;6.40;5.40;;;33.90;99.90;;;;;;2702052;39;20976;31
2022/08/17 08:24:08;;;;;;;8.48;6.65;;;33.80;99.90;;;;;;2603361;54;20105;31
2022/08/17 08:26:46;;;;;;;7.68;5.90;;;34.00;99.90;;;;;;2621850;46;20054;31
2022/08/17 08:29:27;;;;;;;8.70;6.77;;;34.20;99.90;;;;;;2603415;54;20022;31
2022/08/17 08:32:05;;;;;;;7.93;6.35;;;34.30;98.90;;;;;;2603439;54;20026;31
2022/08/17 08:34:44;;;;;;;6.90;6.20;;;34.40;99.90;;;;;;2603493;54;20031;31
2022/08/17 08:37:43;;;;;;;7.80;6.15;;;34.50;99.00;;;;;;2603214;54;20092;31
2022/08/17 08:40:35;;;;;;;7.10;5.90;;;34.60;97.80;;;;;;2603057;54;20050;31
2022/08/17 08:43:09;;;;;;;9.60;6.00;;;34.70;97.30;;;;;;2603404;54;20031;31
2022/08/17 08:45:47;;;;;;;7.90;6.10;;;34.80;97.70;;;;;;2603531;54;20106;31
2022/08/17 08:48:32;;;;;;;9.90;5.55;;;34.90;97.30;;;;;;2603444;54;20027;31
2022/08/17 08:51:31;;;;;;;6.80;5.47;;;35.10;97.40;;;;;;2603221;54;20029;31
2022/08/17 08:54:11;;;;;;;6.90;5.30;;;35.20;97.30;;;;;;2603230;54;20034;31
2022/08/17 08:56:50;;;;;;;6.13;5.25;;;35.40;96.70;;;;;;2603156;54;20272;31
2022/08/17 08:59:51;;;;;;;7.40;5.32;;;35.50;96.60;;;;;;2603102;54;20038;31
2022/08/17 09:02:47;;;;;;;6.68;5.85;;;35.60;95.90;;;;;;2603151;54;20158;31
2022/08/17 09:05:30;;;;;;;6.63;6.07;;;35.80;95.20;;;;;;2603241;54;20054;31
2022/08/17 09:10:48;;;;;;;8.07;5.15;;;35.70;95.30;;;;;;2603335;54;20753;31
2022/08/17 09:13:29;;;;;;;6.75;6.15;;;35.80;94.50;;;;;;2603262;54;20836;31
2022/08/17 09:16:07;;;;;;;9.20;6.20;;;35.80;94.20;;;;;;2621957;47;20744;31
2022/08/17 09:18:43;;;;;;;8.35;6.70;;;35.90;93.60;;;;;;2603138;54;20030;31
2022/08/17 09:21:41;;;;;;;6.20;5.30;;;35.90;93.60;;;;;;2621800;47;20042;31
2022/08/17 09:24:21;;;;;;;6.97;6.30;;;35.90;93.60;;;;;;2603368;54;20238;31
2022/08/17 09:26:59;;;;;;;6.85;6.13;;;36.00;93.30;;;;;;2603290;54;20038;31
2022/08/17 09:29:38;;;;;;;7.05;6.15;;;36.20;93.50;;;;;;2603168;54;20141;31
2022/08/17 09:32:21;;;;;;;6.88;6.03;;;36.10;92.20;;;;;;2603212;54;20879;31
2022/08/17 09:34:59;;;;;;;8.32;5.88;;;36.00;92.80;;;;;;2603351;54;20037;31
2022/08/17 09:37:50;;;;;;;8.85;5.95;;;36.00;92.80;;;;;;2602975;54;20809;31
2022/08/17 09:40:26;;;;;;;6.68;6.07;;;35.90;92.80;;;;;;2603331;54;20005;31
2022/08/17 09:43:03;;;;;;;6.60;6.00;;;35.90;92.30;;;;;;2603358;54;20027;31
2022/08/17 09:45:42;;;;;;;7.37;6.13;;;36.00;92.70;;;;;;2603059;54;20030;31
2022/08/17 09:48:18;;;;;;;8.35;5.90;;;36.10;92.60;;;;;;2621369;47;20027;31
2022/08/17 09:51:00;;;;;;;6.55;5.93;;;36.20;92.40;;;;;;2603469;54;20032;31
2022/08/17 09:53:39;;;;;;;7.95;6.18;;;36.20;92.10;;;;;;2603765;54;20093;31
2022/08/17 09:56:23;;;;;;;8.25;5.43;;;36.30;92.30;;;;;;2603934;54;20030;31
2022/08/17 09:59:26;;;;;;;6.25;5.40;;;36.30;91.50;;;;;;2702549;39;21014;31
2022/08/17 10:02:35;;;;;;;6.35;5.70;;;36.30;91.50;;;;;;2622178;46;21185;31
2022/08/17 10:05:11;;;;;;;8.68;5.60;;;36.40;89.90;;;;;;2603772;54;20102;31
2022/08/17 10:07:45;;;;;;;5.80;5.20;;;36.30;90.80;;;;;;2603843;54;20037;31
2022/08/17 10:10:23;;;;;;;6.97;5.38;;;36.40;91.00;;;;;;2604093;54;20242;31
2022/08/17 10:13:01;;;;;;;7.05;5.70;;;36.40;90.30;;;;;;2603734;54;20973;31
2022/08/17 10:15:45;;;;;;;6.03;5.38;;;36.30;89.50;;;;;;2603796;54;20046;31
2022/08/17 10:18:18;;;;;;;7.55;5.05;;;36.30;90.60;;;;;;2622481;46;20037;31
2022/08/17 10:26:11;;;;;;;7.37;6.20;;;36.30;90.30;;;;;;2702526;39;20992;31
2022/08/17 10:26:49;;;;;;;5.13;4.63;;;36.30;90.20;;;;;;2603515;54;20026;31
2022/08/17 10:29:33;;;;;;;6.15;5.53;;;36.20;90.10;;;;;;2603888;54;20034;31
2022/08/17 10:32:31;;;;;;;5.95;5.35;;;36.20;88.10;;;;;;2603822;54;20895;31
2022/08/17 10:35:05;;;;;;;8.02;5.10;;;36.10;88.00;;;;;;2604023;54;20034;31
2022/08/17 10:37:59;;;;;;;5.70;5.20;;;36.10;88.80;;;;;;2603732;54;20026;31
2022/08/17 10:40:37;;;;;;;6.27;5.40;;;36.00;87.10;;;;;;2603601;54;20032;31
2022/08/17 10:43:24;;;;;;;7.93;5.70;;;35.90;87.20;;;;;;2603908;54;19941;31
2022/08/17 10:46:02;;;;;;;6.47;5.87;;;35.80;88.90;;;;;;2603884;54;20026;31
2022/08/17 10:49:23;;;;;;;6.45;5.55;;;35.80;88.20;;;;;;2603865;54;21051;31
2022/08/17 10:51:57;;;;;;;6.32;5.72;;;35.70;87.70;;;;;;2603643;54;19946;31
2022/08/17 10:54:49;;;;;;;6.40;5.70;;;35.70;87.80;;;;;;2702321;39;20985;31
2022/08/17 10:57:40;;;;;;;6.57;5.90;;;35.70;88.10;;;;;;2603820;54;20770;31
2022/08/17 11:00:19;;;;;;;11.00;5.50;;;35.40;87.50;;;;;;2603723;54;19954;31
2022/08/17 11:03:00;;;;;;;6.37;5.73;;;35.40;88.10;;;;;;2603318;54;20165;31
2022/08/17 11:05:52;;;;;;;7.30;5.10;;;35.40;87.60;;;;;;2603895;54;20246;31
2022/08/17 11:08:53;;;;;;;6.85;5.95;;;35.40;89.40;;;;;;2603449;54;20053;31
2022/08/17 11:11:27;;;;;;;7.97;6.20;;;35.50;88.10;;;;;;2603647;54;20937;31
2022/08/17 11:14:12;;;;;;;6.73;6.13;;;35.50;88.40;;;;;;2603710;54;20026;31
2022/08/17 11:16:52;;;;;;;5.80;5.28;;;35.50;88.20;;;;;;2603615;54;20332;31
2022/08/17 11:19:42;;;;;;;8.60;5.53;;;35.50;87.70;;;;;;2622360;46;20030;31
2022/08/17 11:22:35;;;;;;;9.25;5.93;;;35.60;87.90;;;;;;2622147;46;20030;31
2022/08/17 11:25:16;;;;;;;9.33;6.00;;;35.60;87.90;;;;;;2603708;54;20049;31
2022/08/17 11:27:52;;;;;;;7.95;5.60;;;35.60;88.20;;;;;;2603523;54;20029;31
2022/08/17 11:30:47;;;;;;;5.70;5.10;;;35.70;89.20;;;;;;2603774;54;20861;31
2022/08/17 11:34:06;;;;;;;6.20;5.20;;;35.70;86.10;;;;;;2603781;54;20033;31
2022/08/17 11:37:02;;;;;;;6.47;5.88;;;35.60;84.70;;;;;;2603537;54;20026;31
2022/08/17 11:40:05;;;;;;;6.30;5.70;;;35.50;86.80;;;;;;2603515;54;20915;31
2022/08/17 11:42:49;;;;;;;7.18;5.80;;;35.50;88.10;;;;;;2603591;54;20027;31
2022/08/17 11:45:41;;;;;;;5.65;4.53;;;35.60;87.90;;;;;;2603467;54;20941;31
2022/08/17 11:54:04;;;;;;;10.90;7.47;;;34.80;85.70;;;;;;2603347;54;20906;31
2022/08/17 11:57:01;;;;;;;22.77;6.03;;;34.40;88.60;;;;;;2603386;54;20108;31
2022/08/17 11:59:58;;;;;;;7.53;5.70;;;34.10;88.90;;;;;;2603459;54;20293;31
2022/08/17 12:02:41;;;;;;;6.63;5.93;;;33.90;89.00;;;;;;2603546;54;20105;31
2022/08/17 12:05:36;;;;;;;5.30;4.60;;;33.90;88.90;;;;;;2603443;54;20109;31
2022/08/17 12:08:31;;;;;;;5.90;5.35;;;34.00;90.40;;;;;;2603687;54;20258;31
2022/08/17 12:11:09;;;;;;;5.20;4.75;;;34.00;89.50;;;;;;2603288;54;20022;31
2022/08/17 12:13:45;;;;;;;6.17;5.23;;;34.10;88.80;;;;;;2603527;54;20033;31
2022/08/17 12:16:21;;;;;;;6.27;4.97;;;34.20;87.30;;;;;;2621823;46;20101;31
2022/08/17 12:19:01;;;;;;;5.85;4.40;;;34.20;87.00;;;;;;2603465;54;20238;31
2022/08/17 12:21:43;;;;;;;12.85;5.55;;;34.30;90.30;;;;;;2603528;54;20030;31
2022/08/17 12:24:30;;;;;;;7.95;6.40;;;34.40;90.00;;;;;;2603350;54;21020;31
2022/08/17 12:27:06;;;;;;;7.80;5.40;;;34.30;88.10;;;;;;2702070;39;21042;31
2022/08/17 12:29:43;;;;;;;7.82;5.38;;;34.30;87.70;;;;;;2603445;54;20030;31
2022/08/17 12:32:19;;;;;;;7.57;5.20;;;34.20;90.00;;;;;;2621812;46;20910;31
2022/08/17 12:34:58;;;;;;;15.65;5.03;;;34.20;88.70;;;;;;2621561;46;20037;31
2022/08/17 12:37:34;;;;;;;6.25;5.75;;;34.10;88.90;;;;;;2621834;46;20026;31
2022/08/17 12:40:21;;;;;;;5.63;4.72;;;34.10;88.30;;;;;;2603351;54;20032;31
2022/08/17 12:42:57;;;;;;;11.43;5.38;;;34.10;86.70;;;;;;2603411;54;20034;31
2022/08/17 12:45:35;;;;;;;6.63;5.07;;;34.00;88.30;;;;;;2603538;54;20026;31
2022/08/17 12:48:11;;;;;;;6.80;5.70;;;34.00;88.10;;;;;;2603455;54;20097;31
2022/08/17 12:50:46;;;;;;;5.70;5.10;;;34.00;86.80;;;;;;2603243;54;21896;31
2022/08/17 12:53:20;;;;;;;8.85;5.28;;;33.90;87.40;;;;;;2621963;47;20034;31
2022/08/17 12:56:03;;;;;;;5.70;5.22;;;33.90;87.90;;;;;;2603294;54;20824;31
2022/08/17 12:58:46;;;;;;;6.30;5.07;;;33.90;89.70;;;;;;2603515;54;19941;31
2022/08/17 13:01:22;;;;;;;7.78;5.13;;;33.80;89.50;;;;;;2621590;47;20089;31
2022/08/17 13:03:59;;;;;;;6.72;5.38;;;33.80;87.40;;;;;;2603139;54;20062;31
2022/08/17 13:06:37;;;;;;;5.53;4.88;;;33.80;86.90;;;;;;2621496;47;20034;31
2022/08/17 13:09:13;;;;;;;5.13;4.70;;;33.80;86.70;;;;;;2603158;54;20031;31
2022/08/17 13:11:52;;;;;;;5.97;5.30;;;33.80;86.10;;;;;;2622065;47;20247;31
2022/08/17 13:14:27;;;;;;;5.68;5.15;;;33.70;87.10;;;;;;2603332;54;20038;31
2022/08/17 13:17:04;;;;;;;6.50;5.68;;;33.70;87.20;;;;;;2603259;54;20806;31
2022/08/17 13:19:51;;;;;;;6.17;4.70;;;33.60;86.40;;;;;;2603156;54;20001;31
2022/08/17 13:22:28;;;;;;;5.97;5.00;;;33.60;87.00;;;;;;2603146;54;20026;31
2022/08/17 13:25:08;;;;;;;5.85;4.93;;;33.50;87.60;;;;;;2621656;47;20249;31
2022/08/17 13:27:49;;;;;;;5.55;5.05;;;33.50;87.70;;;;;;2622499;46;20052;31
2022/08/17 13:30:26;;;;;;;5.30;4.80;;;33.50;86.60;;;;;;2622111;46;20057;31
2022/08/17 13:33:04;;;;;;;7.30;4.90;;;33.40;86.80;;;;;;2622514;46;20030;31
2022/08/17 13:35:43;;;;;;;5.07;4.68;;;33.40;87.30;;;;;;2621842;46;20243;31
2022/08/17 13:38:38;;;;;;;5.85;4.55;;;33.40;86.80;;;;;;2604091;54;20846;31
2022/08/17 13:41:33;;;;;;;5.53;5.03;;;33.40;87.00;;;;;;2603877;54;20888;31
2022/08/17 13:44:41;;;;;;;4.97;4.47;;;33.30;87.30;;;;;;2604209;54;20030;31
2022/08/17 13:47:20;;;;;;;6.05;5.07;;;33.40;87.80;;;;;;2622546;46;19935;31
2022/08/17 13:49:55;;;;;;;4.72;4.20;;;33.30;89.10;;;;;;2622499;46;20026;31
2022/08/17 13:52:38;;;;;;;5.83;5.23;;;33.30;87.60;;;;;;2604253;54;20045;31
2022/08/17 13:55:18;;;;;;;6.60;5.10;;;33.30;87.20;;;;;;2603808;54;20882;31
2022/08/17 13:57:55;;;;;;;5.82;4.90;;;33.30;87.10;;;;;;2604060;54;20027;31
2022/08/17 14:00:40;;;;;;;8.45;4.97;;;33.30;87.10;;;;;;2702368;39;20995;31
2022/08/17 14:03:18;;;;;;;5.07;4.65;;;33.30;87.20;;;;;;2622105;46;20030;31
2022/08/17 14:05:54;;;;;;;5.78;5.25;;;33.20;86.90;;;;;;2603858;54;20026;31
2022/08/17 14:08:29;;;;;;;5.05;4.65;;;33.20;86.70;;;;;;2604224;54;20867;31
2022/08/17 14:11:04;;;;;;;6.10;5.28;;;33.20;86.80;;;;;;2604060;54;20877;31
2022/08/17 14:13:38;;;;;;;;;;;33.20;86.00;;;;;;2604189;54;20038;31
2022/08/17 14:16:13;;;;;;;5.97;5.03;;;33.20;86.70;;;;;;2622527;46;19935;31
2022/08/17 14:18:50;;;;;;;5.70;4.83;;;33.20;87.60;;;;;;2603696;54;20031;31
2022/08/17 14:21:30;;;;;;;5.68;5.18;;;33.20;88.50;;;;;;2622275;46;20050;31
2022/08/17 14:24:05;;;;;;;6.15;5.10;;;33.20;86.90;;;;;;2702419;39;21038;31
2022/08/17 14:26:40;;;;;;;6.13;5.35;;;33.10;86.30;;;;;;2603781;54;20026;31
2022/08/17 14:29:15;;;;;;;6.88;5.13;;;33.10;86.70;;;;;;2621706;46;20859;31
2022/08/17 14:31:48;;;;;;;6.20;4.93;;;33.10;87.10;;;;;;2622300;46;20882;31